createdAt,value
2018-03-27T00:00:43.155Z,0.00
2018-03-27T00:01:43.151Z,0.00
2018-03-27T00:02:43.149Z,0.00
2018-03-27T00:03:43.140Z,0.00
2018-03-27T00:04:43.140Z,0.00
2018-03-27T00:05:43.132Z,0.00
2018-03-27T00:06:43.114Z,0.00
2018-03-27T00:07:43.121Z,0.00
2018-03-27T00:08:43.116Z,0.00
2018-03-27T00:09:43.103Z,0.00
2018-03-27T00:10:43.100Z,0.00
2018-03-27T00:11:43.102Z,0.00
2018-03-27T00:12:43.092Z,0.00
2018-03-27T00:13:43.090Z,0.00
2018-03-27T00:14:43.079Z,0.00
2018-03-27T00:15:43.083Z,0.00
2018-03-27T00:16:43.072Z,0.00
2018-03-27T00:17:43.065Z,0.00
2018-03-27T00:18:43.069Z,0.00
2018-03-27T00:19:43.067Z,0.00
2018-03-27T00:20:43.066Z,0.00
2018-03-27T00:21:43.046Z,0.00
2018-03-27T00:22:43.049Z,0.00
2018-03-27T00:23:43.060Z,0.00
2018-03-27T00:24:43.030Z,0.00
2018-03-27T00:25:43.024Z,0.00
2018-03-27T00:26:43.022Z,0.00
2018-03-27T00:27:43.021Z,0.00
2018-03-27T00:28:43.021Z,0.00
2018-03-27T00:29:43.007Z,0.00
2018-03-27T00:30:43.001Z,0.00
2018-03-27T00:31:42.997Z,0.00
2018-03-27T00:32:42.995Z,0.00
2018-03-27T00:33:42.987Z,0.00
2018-03-27T00:34:42.979Z,0.00
2018-03-27T00:35:42.977Z,0.00
2018-03-27T00:36:42.978Z,0.00
2018-03-27T00:37:42.964Z,0.00
2018-03-27T00:38:42.972Z,0.00
2018-03-27T00:39:42.964Z,0.00
2018-03-27T00:40:42.968Z,0.00
2018-03-27T00:41:42.942Z,0.00
2018-03-27T00:42:42.955Z,0.00
2018-03-27T00:43:42.932Z,0.00
2018-03-27T00:44:42.930Z,0.00
2018-03-27T00:45:42.950Z,0.00
2018-03-27T00:46:42.930Z,0.00
2018-03-27T00:47:42.910Z,0.00
2018-03-27T00:48:42.917Z,0.00
2018-03-27T00:49:42.900Z,0.00
2018-03-27T00:50:42.904Z,0.00
2018-03-27T00:51:42.898Z,0.00
2018-03-27T00:52:42.890Z,0.00
2018-03-27T00:53:42.892Z,0.00
2018-03-27T00:54:42.906Z,0.00
2018-03-27T00:55:42.873Z,0.00
2018-03-27T00:56:42.874Z,0.00
2018-03-27T00:57:42.874Z,0.00
2018-03-27T00:58:42.869Z,0.00
2018-03-27T00:59:42.856Z,0.00
2018-03-27T01:00:42.857Z,0.00
2018-03-27T01:01:42.851Z,0.00
2018-03-27T01:02:42.850Z,0.00
2018-03-27T01:03:42.841Z,0.00
2018-03-27T01:04:42.829Z,0.00
2018-03-27T01:05:42.827Z,0.00
2018-03-27T01:06:42.827Z,0.00
2018-03-27T01:07:42.822Z,0.00
2018-03-27T01:08:42.819Z,0.00
2018-03-27T01:09:42.805Z,0.00
2018-03-27T01:10:42.811Z,0.00
2018-03-27T01:11:42.802Z,0.00
2018-03-27T01:12:42.790Z,0.00
2018-03-27T01:13:42.797Z,0.00
2018-03-27T01:14:42.784Z,0.00
2018-03-27T01:15:42.782Z,0.00
2018-03-27T01:16:42.777Z,0.00
2018-03-27T01:17:42.758Z,0.00
2018-03-27T01:18:42.783Z,0.00
2018-03-27T01:19:42.757Z,0.00
2018-03-27T01:20:42.757Z,0.00
2018-03-27T01:21:42.750Z,0.00
2018-03-27T01:22:42.743Z,0.00
2018-03-27T01:23:42.750Z,0.00
2018-03-27T01:24:42.755Z,0.00
2018-03-27T01:25:42.741Z,0.00
2018-03-27T01:26:42.731Z,0.00
2018-03-27T01:27:42.720Z,0.00
2018-03-27T01:28:42.712Z,0.00
2018-03-27T01:29:42.712Z,0.00
2018-03-27T01:30:42.706Z,0.00
2018-03-27T01:31:42.697Z,0.00
2018-03-27T01:32:42.696Z,0.00
2018-03-27T01:33:42.687Z,0.00
2018-03-27T01:34:42.707Z,0.00
2018-03-27T01:35:42.683Z,0.00
2018-03-27T01:36:42.671Z,0.00
2018-03-27T01:37:42.665Z,0.00
2018-03-27T01:38:42.660Z,0.00
2018-03-27T01:39:42.676Z,0.00
2018-03-27T01:40:42.657Z,0.00
2018-03-27T01:41:42.651Z,0.00
2018-03-27T01:42:42.645Z,0.00
2018-03-27T01:43:42.641Z,0.00
2018-03-27T01:44:42.638Z,0.00
2018-03-27T01:45:42.627Z,0.00
2018-03-27T01:46:42.626Z,0.00
2018-03-27T01:47:42.626Z,0.00
2018-03-27T01:48:42.613Z,0.00
2018-03-27T01:49:42.618Z,0.00
2018-03-27T01:50:42.613Z,0.00
2018-03-27T01:51:42.617Z,0.00
2018-03-27T01:52:42.598Z,0.00
2018-03-27T01:53:42.593Z,0.00
2018-03-27T01:54:42.577Z,0.00
2018-03-27T01:55:42.581Z,0.00
2018-03-27T01:56:42.577Z,0.00
2018-03-27T01:57:42.572Z,0.00
2018-03-27T01:58:42.568Z,0.00
2018-03-27T01:59:42.580Z,0.00
2018-03-27T02:00:42.562Z,0.00
2018-03-27T02:01:42.546Z,0.00
2018-03-27T02:02:42.548Z,0.00
2018-03-27T02:03:42.547Z,0.00
2018-03-27T02:04:42.532Z,0.00
2018-03-27T02:05:42.528Z,0.00
2018-03-27T02:06:42.523Z,0.00
2018-03-27T02:07:42.522Z,0.00
2018-03-27T02:08:42.524Z,0.00
2018-03-27T02:09:42.501Z,0.00
2018-03-27T02:10:42.508Z,0.00
2018-03-27T02:11:42.502Z,0.00
2018-03-27T02:12:42.499Z,0.00
2018-03-27T02:13:42.494Z,0.00
2018-03-27T02:14:42.486Z,0.00
2018-03-27T02:15:42.482Z,0.00
2018-03-27T02:16:42.478Z,0.00
2018-03-27T02:17:42.473Z,0.00
2018-03-27T02:18:42.468Z,0.00
2018-03-27T02:19:42.461Z,0.00
2018-03-27T02:20:42.451Z,0.00
2018-03-27T02:21:42.446Z,0.00
2018-03-27T02:22:42.452Z,0.00
2018-03-27T02:23:42.444Z,0.00
2018-03-27T02:24:42.444Z,0.00
2018-03-27T02:25:42.426Z,0.00
2018-03-27T02:26:42.422Z,0.00
2018-03-27T02:27:42.417Z,0.00
2018-03-27T02:28:42.418Z,0.00
2018-03-27T02:29:42.409Z,0.00
2018-03-27T02:30:42.405Z,0.00
2018-03-27T02:31:42.402Z,0.00
2018-03-27T02:32:42.399Z,0.00
2018-03-27T02:33:42.384Z,0.00
2018-03-27T02:34:42.378Z,0.00
2018-03-27T02:35:42.399Z,0.00
2018-03-27T02:36:42.374Z,0.00
2018-03-27T02:37:42.387Z,0.00
2018-03-27T02:38:42.361Z,0.00
2018-03-27T02:39:42.362Z,0.00
2018-03-27T02:40:42.361Z,0.00
2018-03-27T02:41:42.354Z,0.00
2018-03-27T02:42:42.343Z,0.00
2018-03-27T02:43:42.339Z,0.00
2018-03-27T02:44:42.344Z,0.00
2018-03-27T02:45:42.329Z,0.00
2018-03-27T02:46:42.318Z,0.00
2018-03-27T02:47:42.325Z,0.00
2018-03-27T02:48:42.320Z,0.00
2018-03-27T02:49:42.314Z,0.00
2018-03-27T02:50:42.307Z,0.00
2018-03-27T02:51:42.305Z,0.00
2018-03-27T02:52:42.289Z,0.00
2018-03-27T02:53:42.287Z,0.00
2018-03-27T02:54:42.289Z,0.00
2018-03-27T02:55:42.279Z,0.00
2018-03-27T02:56:42.279Z,0.00
2018-03-27T02:57:42.267Z,0.00
2018-03-27T02:58:42.258Z,0.00
2018-03-27T02:59:42.274Z,0.00
2018-03-27T03:00:42.258Z,0.00
2018-03-27T03:01:42.249Z,0.00
2018-03-27T03:02:42.249Z,0.00
2018-03-27T03:03:42.229Z,0.00
2018-03-27T03:04:42.243Z,0.00
2018-03-27T03:05:42.217Z,0.00
2018-03-27T03:06:42.232Z,0.00
2018-03-27T03:07:42.224Z,0.00
2018-03-27T03:08:42.213Z,0.00
2018-03-27T03:09:42.208Z,0.00
2018-03-27T03:10:42.207Z,0.00
2018-03-27T03:11:42.202Z,0.00
2018-03-27T03:12:42.198Z,0.00
2018-03-27T03:13:42.192Z,0.00
2018-03-27T03:14:42.188Z,0.00
2018-03-27T03:15:42.195Z,0.00
2018-03-27T03:16:42.178Z,0.00
2018-03-27T03:17:42.174Z,0.00
2018-03-27T03:18:42.162Z,0.00
2018-03-27T03:19:42.162Z,0.00
2018-03-27T03:20:42.148Z,0.00
2018-03-27T03:21:42.151Z,0.00
2018-03-27T03:22:42.149Z,0.00
2018-03-27T03:23:42.140Z,0.00
2018-03-27T03:24:42.144Z,0.00
2018-03-27T03:25:42.123Z,0.00
2018-03-27T03:26:42.131Z,0.00
2018-03-27T03:27:42.123Z,0.00
2018-03-27T03:28:42.114Z,0.00
2018-03-27T03:29:42.126Z,0.00
2018-03-27T03:30:42.110Z,0.00
2018-03-27T03:31:42.119Z,0.00
2018-03-27T03:32:42.104Z,0.00
2018-03-27T03:33:42.106Z,0.00
2018-03-27T03:34:42.092Z,0.00
2018-03-27T03:35:42.085Z,0.00
2018-03-27T03:36:42.080Z,0.00
2018-03-27T03:37:42.082Z,0.00
2018-03-27T03:38:42.079Z,0.00
2018-03-27T03:39:42.074Z,0.00
2018-03-27T03:40:42.066Z,0.00
2018-03-27T03:41:42.045Z,0.00
2018-03-27T03:42:42.044Z,0.00
2018-03-27T03:43:42.045Z,0.00
2018-03-27T03:44:42.039Z,0.00
2018-03-27T03:45:42.028Z,0.00
2018-03-27T03:46:42.028Z,0.00
2018-03-27T03:47:42.019Z,0.00
2018-03-27T03:48:42.014Z,0.00
2018-03-27T03:49:42.010Z,0.00
2018-03-27T03:50:42.009Z,0.00
2018-03-27T03:51:42.001Z,0.00
2018-03-27T03:52:41.985Z,0.00
2018-03-27T03:53:41.994Z,0.00
2018-03-27T03:54:41.984Z,0.00
2018-03-27T03:55:41.989Z,0.00
2018-03-27T03:56:41.983Z,0.00
2018-03-27T03:57:41.968Z,0.00
2018-03-27T03:58:41.960Z,0.00
2018-03-27T03:59:41.959Z,0.00
2018-03-27T04:00:41.970Z,0.00
2018-03-27T04:01:41.949Z,0.00
2018-03-27T04:02:41.944Z,0.00
2018-03-27T04:03:41.954Z,0.00
2018-03-27T04:04:41.934Z,0.00
2018-03-27T04:05:41.933Z,0.00
2018-03-27T04:06:41.930Z,0.00
2018-03-27T04:07:41.920Z,0.00
2018-03-27T04:08:41.928Z,0.00
2018-03-27T04:09:41.914Z,0.00
2018-03-27T04:10:41.914Z,0.00
2018-03-27T04:11:41.900Z,0.00
2018-03-27T04:12:41.898Z,0.00
2018-03-27T04:13:41.899Z,0.00
2018-03-27T04:14:41.889Z,0.00
2018-03-27T04:15:41.878Z,0.00
2018-03-27T04:16:41.883Z,0.00
2018-03-27T04:17:41.867Z,0.00
2018-03-27T04:18:41.874Z,0.00
2018-03-27T04:19:41.860Z,0.00
2018-03-27T04:20:41.859Z,0.00
2018-03-27T04:21:41.848Z,0.00
2018-03-27T04:22:41.849Z,0.00
2018-03-27T04:23:41.863Z,0.00
2018-03-27T04:24:41.836Z,0.00
2018-03-27T04:25:41.831Z,0.00
2018-03-27T04:26:41.831Z,0.00
2018-03-27T04:27:41.821Z,0.00
2018-03-27T04:28:41.808Z,0.00
2018-03-27T04:29:41.810Z,0.00
2018-03-27T04:30:41.809Z,0.00
2018-03-27T04:31:41.800Z,0.00
2018-03-27T04:32:41.803Z,0.00
2018-03-27T04:33:41.786Z,0.00
2018-03-27T04:34:41.793Z,0.00
2018-03-27T04:35:41.788Z,0.00
2018-03-27T04:36:41.787Z,0.00
2018-03-27T04:37:41.765Z,0.00
2018-03-27T04:38:41.760Z,0.00
2018-03-27T04:39:41.760Z,0.00
2018-03-27T04:40:41.786Z,0.00
2018-03-27T04:41:41.749Z,0.00
2018-03-27T04:42:41.744Z,0.00
2018-03-27T04:43:41.736Z,0.00
2018-03-27T04:44:41.733Z,0.00
2018-03-27T04:45:41.726Z,0.00
2018-03-27T04:46:41.719Z,0.00
2018-03-27T04:47:41.719Z,0.00
2018-03-27T04:48:41.721Z,0.00
2018-03-27T04:49:41.706Z,0.00
2018-03-27T04:50:41.706Z,0.00
2018-03-27T04:51:41.708Z,0.00
2018-03-27T04:52:41.701Z,0.00
2018-03-27T04:53:41.697Z,0.00
2018-03-27T04:54:41.688Z,0.00
2018-03-27T04:55:41.684Z,0.00
2018-03-27T04:56:41.670Z,0.00
2018-03-27T04:57:41.666Z,0.00
2018-03-27T04:58:41.664Z,0.00
2018-03-27T04:59:41.669Z,0.00
2018-03-27T05:00:41.652Z,0.00
2018-03-27T05:01:41.649Z,0.00
2018-03-27T05:02:41.647Z,0.00
2018-03-27T05:03:41.649Z,0.00
2018-03-27T05:04:41.640Z,0.00
2018-03-27T05:05:41.630Z,0.00
2018-03-27T05:06:41.626Z,0.00
2018-03-27T05:07:41.617Z,0.00
2018-03-27T05:08:41.616Z,0.00
2018-03-27T05:09:41.614Z,0.00
2018-03-27T05:10:41.604Z,0.00
2018-03-27T05:11:41.596Z,0.00
2018-03-27T05:12:41.590Z,0.00
2018-03-27T05:13:41.594Z,0.00
2018-03-27T05:14:41.577Z,0.00
2018-03-27T05:15:41.590Z,0.00
2018-03-27T05:16:41.573Z,0.00
2018-03-27T05:17:41.570Z,0.00
2018-03-27T05:18:41.566Z,4.00
2018-03-27T05:19:41.556Z,4.00
2018-03-27T05:20:41.562Z,4.00
2018-03-27T05:21:41.553Z,4.00
2018-03-27T05:22:41.544Z,0.00
2018-03-27T05:23:41.541Z,0.00
2018-03-27T05:24:41.540Z,4.00
2018-03-27T05:25:41.525Z,4.00
2018-03-27T05:26:41.529Z,4.00
2018-03-27T05:27:41.519Z,4.00
2018-03-27T05:28:41.514Z,0.00
2018-03-27T05:29:41.502Z,4.00
2018-03-27T05:30:41.507Z,4.00
2018-03-27T05:31:41.509Z,4.00
2018-03-27T05:32:41.491Z,8.00
2018-03-27T05:33:41.495Z,4.00
2018-03-27T05:34:41.476Z,4.00
2018-03-27T05:35:41.481Z,8.00
2018-03-27T05:36:41.480Z,4.00
2018-03-27T05:37:41.475Z,8.00
2018-03-27T05:38:41.484Z,8.00
2018-03-27T05:39:41.467Z,4.00
2018-03-27T05:40:41.462Z,8.00
2018-03-27T05:41:41.452Z,8.00
2018-03-27T05:42:41.449Z,8.00
2018-03-27T05:43:41.442Z,12.00
2018-03-27T05:44:41.441Z,12.00
2018-03-27T05:45:41.427Z,12.00
2018-03-27T05:46:41.479Z,12.00
2018-03-27T05:47:41.417Z,12.00
2018-03-27T05:48:41.415Z,12.00
2018-03-27T05:49:41.406Z,16.00
2018-03-27T05:50:41.400Z,16.00
2018-03-27T05:51:41.404Z,16.00
2018-03-27T05:52:41.400Z,16.00
2018-03-27T05:53:41.389Z,16.00
2018-03-27T05:54:41.390Z,16.00
2018-03-27T05:55:41.390Z,20.00
2018-03-27T05:56:41.385Z,20.00
2018-03-27T05:57:41.366Z,24.00
2018-03-27T05:58:41.370Z,20.00
2018-03-27T05:59:41.361Z,24.00
2018-03-27T06:00:41.356Z,24.00
2018-03-27T06:01:41.356Z,24.00
2018-03-27T06:02:41.340Z,28.00
2018-03-27T06:03:41.345Z,28.00
2018-03-27T06:04:41.328Z,28.00
2018-03-27T06:05:41.342Z,28.00
2018-03-27T06:06:41.320Z,28.00
2018-03-27T06:07:41.322Z,36.00
2018-03-27T06:08:41.326Z,36.00
2018-03-27T06:09:41.312Z,36.00
2018-03-27T06:10:41.311Z,36.00
2018-03-27T06:11:41.302Z,36.00
2018-03-27T06:12:41.290Z,40.00
2018-03-27T06:13:41.301Z,40.00
2018-03-27T06:14:41.296Z,44.00
2018-03-27T06:15:41.287Z,48.00
2018-03-27T06:16:41.276Z,48.00
2018-03-27T06:17:41.277Z,56.00
2018-03-27T06:18:41.316Z,60.00
2018-03-27T06:19:41.262Z,68.00
2018-03-27T06:20:41.253Z,76.00
2018-03-27T06:21:41.252Z,84.00
2018-03-27T06:22:41.247Z,92.00
2018-03-27T06:23:41.241Z,104.00
2018-03-27T06:24:41.233Z,116.00
2018-03-27T06:25:41.231Z,132.00
2018-03-27T06:26:41.231Z,144.00
2018-03-27T06:27:41.274Z,148.00
2018-03-27T06:28:41.211Z,160.00
2018-03-27T06:29:41.216Z,172.00
2018-03-27T06:30:41.207Z,180.00
2018-03-27T06:31:41.200Z,192.00
2018-03-27T06:32:41.208Z,196.00
2018-03-27T06:33:41.187Z,192.00
2018-03-27T06:34:41.196Z,196.00
2018-03-27T06:35:41.222Z,204.00
2018-03-27T06:36:41.190Z,228.00
2018-03-27T06:37:41.171Z,260.00
2018-03-27T06:38:41.167Z,272.00
2018-03-27T06:39:41.156Z,284.00
2018-03-27T06:40:41.161Z,300.00
2018-03-27T06:41:41.153Z,316.00
2018-03-27T06:42:41.149Z,328.00
2018-03-27T06:43:41.132Z,336.00
2018-03-27T06:44:41.138Z,356.00
2018-03-27T06:45:41.129Z,368.00
2018-03-27T06:46:41.133Z,372.00
2018-03-27T06:47:41.138Z,380.00
2018-03-27T06:48:41.123Z,388.00
2018-03-27T06:49:41.113Z,400.00
2018-03-27T06:50:41.101Z,408.00
2018-03-27T06:51:41.117Z,408.00
2018-03-27T06:52:41.093Z,408.00
2018-03-27T06:53:41.093Z,408.00
2018-03-27T06:54:41.083Z,404.00
2018-03-27T06:55:41.074Z,420.00
2018-03-27T06:56:41.082Z,416.00
2018-03-27T06:57:41.082Z,412.00
2018-03-27T06:58:41.064Z,408.00
2018-03-27T06:59:41.078Z,416.00
2018-03-27T07:00:41.077Z,420.00
2018-03-27T07:01:41.067Z,432.00
2018-03-27T07:02:41.063Z,448.00
2018-03-27T07:03:41.091Z,456.00
2018-03-27T07:04:41.044Z,460.00
2018-03-27T07:05:41.073Z,468.00
2018-03-27T07:06:41.043Z,472.00
2018-03-27T07:07:41.068Z,476.00
2018-03-27T07:08:41.017Z,504.00
2018-03-27T07:09:41.039Z,516.00
2018-03-27T07:10:41.070Z,512.00
2018-03-27T07:11:41.013Z,524.00
2018-03-27T07:12:41.026Z,460.00
2018-03-27T07:13:41.002Z,552.00
2018-03-27T07:14:41.019Z,560.00
2018-03-27T07:15:41.010Z,592.00
2018-03-27T07:16:41.008Z,572.00
2018-03-27T07:17:40.981Z,584.00
2018-03-27T07:18:40.996Z,580.00
2018-03-27T07:19:40.975Z,448.00
2018-03-27T07:20:40.978Z,556.00
2018-03-27T07:21:40.957Z,600.00
2018-03-27T07:22:40.972Z,436.00
2018-03-27T07:23:40.958Z,236.00
2018-03-27T07:24:40.947Z,476.00
2018-03-27T07:25:40.941Z,580.00
2018-03-27T07:26:40.926Z,624.00
2018-03-27T07:27:40.938Z,588.00
2018-03-27T07:28:40.922Z,612.00
2018-03-27T07:29:40.927Z,604.00
2018-03-27T07:30:40.919Z,612.00
2018-03-27T07:31:40.938Z,596.00
2018-03-27T07:32:40.914Z,588.00
2018-03-27T07:33:40.905Z,492.00
2018-03-27T07:34:40.904Z,480.00
2018-03-27T07:35:40.896Z,236.00
2018-03-27T07:36:40.894Z,356.00
2018-03-27T07:37:40.891Z,168.00
2018-03-27T07:38:40.886Z,236.00
2018-03-27T07:39:40.887Z,380.00
2018-03-27T07:40:40.874Z,120.00
2018-03-27T07:41:40.873Z,112.00
2018-03-27T07:42:40.888Z,124.00
2018-03-27T07:43:40.869Z,100.00
2018-03-27T07:44:40.860Z,72.00
2018-03-27T07:45:40.871Z,64.00
2018-03-27T07:46:40.843Z,68.00
2018-03-27T07:47:40.852Z,60.00
2018-03-27T07:48:40.842Z,104.00
2018-03-27T07:49:40.842Z,80.00
2018-03-27T07:50:40.830Z,88.00
2018-03-27T07:51:40.823Z,288.00
2018-03-27T07:52:40.822Z,76.00
2018-03-27T07:53:40.815Z,116.00
2018-03-27T07:54:40.823Z,88.00
2018-03-27T07:55:40.808Z,84.00
2018-03-27T07:56:40.812Z,96.00
2018-03-27T07:57:40.798Z,120.00
2018-03-27T07:58:40.797Z,356.00
2018-03-27T07:59:40.784Z,144.00
2018-03-27T08:00:40.793Z,112.00
2018-03-27T08:01:40.779Z,100.00
2018-03-27T08:02:40.779Z,108.00
2018-03-27T08:03:40.797Z,80.00
2018-03-27T08:04:40.789Z,80.00
2018-03-27T08:05:40.760Z,76.00
2018-03-27T08:06:40.758Z,72.00
2018-03-27T08:07:40.754Z,84.00
2018-03-27T08:08:40.759Z,80.00
2018-03-27T08:09:40.749Z,84.00
2018-03-27T08:10:40.735Z,72.00
2018-03-27T08:11:40.740Z,228.00
2018-03-27T08:12:40.724Z,96.00
2018-03-27T08:13:40.718Z,88.00
2018-03-27T08:14:40.719Z,100.00
2018-03-27T08:15:40.739Z,232.00
2018-03-27T08:16:40.718Z,148.00
2018-03-27T08:17:40.712Z,272.00
2018-03-27T08:18:40.719Z,132.00
2018-03-27T08:19:40.703Z,112.00
2018-03-27T08:20:40.711Z,104.00
2018-03-27T08:21:40.690Z,96.00
2018-03-27T08:22:40.690Z,92.00
2018-03-27T08:23:40.690Z,260.00
2018-03-27T08:24:40.680Z,120.00
2018-03-27T08:25:40.673Z,96.00
2018-03-27T08:26:40.670Z,124.00
2018-03-27T08:27:40.669Z,96.00
2018-03-27T08:28:40.659Z,84.00
2018-03-27T08:29:40.709Z,356.00
2018-03-27T08:30:40.659Z,84.00
2018-03-27T08:31:40.658Z,92.00
2018-03-27T08:32:40.645Z,184.00
2018-03-27T08:33:40.645Z,100.00
2018-03-27T08:34:40.641Z,88.00
2018-03-27T08:35:40.629Z,68.00
2018-03-27T08:36:40.629Z,60.00
2018-03-27T08:37:40.639Z,56.00
2018-03-27T08:38:40.614Z,60.00
2018-03-27T08:39:40.612Z,56.00
2018-03-27T08:40:40.600Z,64.00
2018-03-27T08:41:40.614Z,64.00
2018-03-27T08:42:40.614Z,76.00
2018-03-27T08:43:40.599Z,80.00
2018-03-27T08:44:40.594Z,96.00
2018-03-27T08:45:40.591Z,80.00
2018-03-27T08:46:40.580Z,96.00
2018-03-27T08:47:40.579Z,84.00
2018-03-27T08:48:40.645Z,76.00
2018-03-27T08:49:40.576Z,76.00
2018-03-27T08:50:40.561Z,72.00
2018-03-27T08:51:40.575Z,68.00
2018-03-27T08:52:40.553Z,64.00
2018-03-27T08:53:40.564Z,72.00
2018-03-27T08:54:40.844Z,72.00
2018-03-27T08:55:40.541Z,88.00
2018-03-27T08:56:40.545Z,120.00
2018-03-27T08:57:40.546Z,228.00
2018-03-27T08:58:40.536Z,164.00
2018-03-27T08:59:40.526Z,180.00
2018-03-27T09:00:40.590Z,236.00
2018-03-27T09:01:40.519Z,384.00
2018-03-27T09:02:40.517Z,364.00
2018-03-27T09:03:40.540Z,332.00
2018-03-27T09:04:40.506Z,376.00
2018-03-27T09:05:40.490Z,344.00
2018-03-27T09:06:40.490Z,284.00
2018-03-27T09:07:40.500Z,356.00
2018-03-27T09:08:40.491Z,368.00
2018-03-27T09:09:40.485Z,244.00
2018-03-27T09:10:40.478Z,224.00
2018-03-27T09:11:40.474Z,260.00
2018-03-27T09:12:40.475Z,208.00
2018-03-27T09:13:40.490Z,180.00
2018-03-27T09:14:40.572Z,228.00
2018-03-27T09:15:40.460Z,268.00
2018-03-27T09:16:40.457Z,164.00
2018-03-27T09:17:40.452Z,136.00
2018-03-27T09:18:40.437Z,128.00
2018-03-27T09:19:40.437Z,116.00
2018-03-27T09:20:40.437Z,96.00
2018-03-27T09:21:40.428Z,84.00
2018-03-27T09:22:40.422Z,76.00
2018-03-27T09:23:40.422Z,72.00
2018-03-27T09:24:41.016Z,68.00
2018-03-27T09:25:40.410Z,64.00
2018-03-27T09:26:40.407Z,68.00
2018-03-27T09:27:40.411Z,76.00
2018-03-27T09:28:40.434Z,80.00
2018-03-27T09:29:40.394Z,84.00
2018-03-27T09:30:40.400Z,80.00
2018-03-27T09:31:40.408Z,88.00
2018-03-27T09:32:40.386Z,84.00
2018-03-27T09:33:40.380Z,80.00
2018-03-27T09:34:40.386Z,80.00
2018-03-27T09:35:40.365Z,80.00
2018-03-27T09:36:40.365Z,84.00
2018-03-27T09:37:40.361Z,80.00
2018-03-27T09:38:40.368Z,116.00
2018-03-27T09:39:40.353Z,140.00
2018-03-27T09:40:40.349Z,144.00
2018-03-27T09:41:40.341Z,112.00
2018-03-27T09:42:40.346Z,128.00
2018-03-27T09:43:40.345Z,136.00
2018-03-27T09:44:40.322Z,128.00
2018-03-27T09:45:40.322Z,104.00
2018-03-27T09:46:40.329Z,92.00
2018-03-27T09:47:40.327Z,116.00
2018-03-27T09:48:40.313Z,96.00
2018-03-27T09:49:40.317Z,96.00
2018-03-27T09:50:40.305Z,84.00
2018-03-27T09:51:40.294Z,92.00
2018-03-27T09:52:40.296Z,104.00
2018-03-27T09:53:40.295Z,100.00
2018-03-27T09:54:40.280Z,108.00
2018-03-27T09:55:40.291Z,96.00
2018-03-27T09:56:40.277Z,108.00
2018-03-27T09:57:40.348Z,96.00
2018-03-27T09:58:40.276Z,116.00
2018-03-27T09:59:40.271Z,120.00
2018-03-27T10:00:40.265Z,132.00
2018-03-27T10:01:40.257Z,144.00
2018-03-27T10:02:40.251Z,156.00
2018-03-27T10:03:40.264Z,156.00
2018-03-27T10:04:40.253Z,164.00
2018-03-27T10:05:40.240Z,184.00
2018-03-27T10:06:40.230Z,200.00
2018-03-27T10:07:40.228Z,164.00
2018-03-27T10:08:40.225Z,184.00
2018-03-27T10:09:40.210Z,172.00
2018-03-27T10:10:40.211Z,172.00
2018-03-27T10:11:40.211Z,176.00
2018-03-27T10:12:40.206Z,152.00
2018-03-27T10:13:40.202Z,144.00
2018-03-27T10:14:40.198Z,120.00
2018-03-27T10:15:40.191Z,116.00
2018-03-27T10:16:40.210Z,132.00
2018-03-27T10:17:40.186Z,116.00
2018-03-27T10:18:40.177Z,100.00
2018-03-27T10:19:40.188Z,80.00
2018-03-27T10:20:40.190Z,68.00
2018-03-27T10:21:40.178Z,60.00
2018-03-27T10:22:40.171Z,56.00
2018-03-27T10:23:40.163Z,52.00
2018-03-27T10:24:40.155Z,68.00
2018-03-27T10:25:40.155Z,56.00
2018-03-27T10:26:40.150Z,48.00
2018-03-27T10:27:40.141Z,52.00
2018-03-27T10:28:40.135Z,52.00
2018-03-27T10:29:40.122Z,44.00
2018-03-27T10:30:40.143Z,52.00
2018-03-27T10:31:40.135Z,44.00
2018-03-27T10:32:40.123Z,48.00
2018-03-27T10:33:40.116Z,52.00
2018-03-27T10:34:40.103Z,52.00
2018-03-27T10:35:40.113Z,56.00
2018-03-27T10:36:40.108Z,72.00
2018-03-27T10:37:40.096Z,68.00
2018-03-27T10:38:40.101Z,76.00
2018-03-27T10:39:40.093Z,80.00
2018-03-27T10:40:40.085Z,80.00
2018-03-27T10:41:40.083Z,76.00
2018-03-27T10:42:40.083Z,76.00
2018-03-27T10:43:40.060Z,84.00
2018-03-27T10:44:40.066Z,68.00
2018-03-27T10:45:40.073Z,64.00
2018-03-27T10:46:40.066Z,68.00
2018-03-27T10:47:40.055Z,60.00
2018-03-27T10:48:40.041Z,68.00
2018-03-27T10:49:40.047Z,72.00
2018-03-27T10:50:40.049Z,64.00
2018-03-27T10:51:40.041Z,64.00
2018-03-27T10:52:40.042Z,72.00
2018-03-27T10:53:40.031Z,72.00
2018-03-27T10:54:40.029Z,76.00
2018-03-27T10:55:40.075Z,84.00
2018-03-27T10:56:40.013Z,100.00
2018-03-27T10:57:40.008Z,148.00
2018-03-27T10:58:40.027Z,168.00
2018-03-27T10:59:40.015Z,172.00
2018-03-27T11:00:40.026Z,200.00
2018-03-27T11:01:39.992Z,188.00
2018-03-27T11:02:39.987Z,236.00
2018-03-27T11:03:39.982Z,240.00
2018-03-27T11:04:39.985Z,236.00
2018-03-27T11:05:39.994Z,188.00
2018-03-27T11:06:39.976Z,164.00
2018-03-27T11:07:39.953Z,148.00
2018-03-27T11:08:39.964Z,124.00
2018-03-27T11:09:39.975Z,184.00
2018-03-27T11:10:39.955Z,148.00
2018-03-27T11:11:39.941Z,156.00
2018-03-27T11:12:39.944Z,188.00
2018-03-27T11:13:39.958Z,200.00
2018-03-27T11:14:39.932Z,200.00
2018-03-27T11:15:39.940Z,204.00
2018-03-27T11:16:39.926Z,216.00
2018-03-27T11:17:39.922Z,188.00
2018-03-27T11:18:39.931Z,160.00
2018-03-27T11:19:39.911Z,144.00
2018-03-27T11:20:39.917Z,128.00
2018-03-27T11:21:39.903Z,116.00
2018-03-27T11:22:39.913Z,104.00
2018-03-27T11:23:39.888Z,100.00
2018-03-27T11:24:39.888Z,92.00
2018-03-27T11:25:39.888Z,88.00
2018-03-27T11:26:39.881Z,84.00
2018-03-27T11:27:39.875Z,80.00
2018-03-27T11:28:39.873Z,80.00
2018-03-27T11:29:39.867Z,80.00
2018-03-27T11:30:39.864Z,76.00
2018-03-27T11:31:39.868Z,80.00
2018-03-27T11:32:39.854Z,80.00
2018-03-27T11:33:39.864Z,76.00
2018-03-27T11:34:39.852Z,76.00
2018-03-27T11:35:39.840Z,80.00
2018-03-27T11:36:39.834Z,84.00
2018-03-27T11:37:39.842Z,88.00
2018-03-27T11:38:39.828Z,88.00
2018-03-27T11:39:39.826Z,88.00
2018-03-27T11:40:39.822Z,92.00
2018-03-27T11:41:39.813Z,92.00
2018-03-27T11:42:39.813Z,112.00
2018-03-27T11:43:39.798Z,116.00
2018-03-27T11:44:39.810Z,140.00
2018-03-27T11:45:39.793Z,124.00
2018-03-27T11:46:39.795Z,120.00
2018-03-27T11:47:39.806Z,128.00
2018-03-27T11:48:39.786Z,136.00
2018-03-27T11:49:39.778Z,140.00
2018-03-27T11:50:39.777Z,144.00
2018-03-27T11:51:39.772Z,152.00
2018-03-27T11:52:39.754Z,156.00
2018-03-27T11:53:39.819Z,160.00
2018-03-27T11:54:39.796Z,164.00
2018-03-27T11:55:39.743Z,164.00
2018-03-27T11:56:39.757Z,156.00
2018-03-27T11:57:39.735Z,116.00
2018-03-27T11:58:39.753Z,108.00
2018-03-27T11:59:39.732Z,104.00
2018-03-27T12:00:39.730Z,92.00
2018-03-27T12:01:39.724Z,88.00
2018-03-27T12:02:39.714Z,88.00
2018-03-27T12:03:39.715Z,88.00
2018-03-27T12:04:39.708Z,92.00
2018-03-27T12:05:39.719Z,92.00
2018-03-27T12:06:39.690Z,80.00
2018-03-27T12:07:39.698Z,76.00
2018-03-27T12:08:39.703Z,72.00
2018-03-27T12:09:39.688Z,72.00
2018-03-27T12:10:39.690Z,76.00
2018-03-27T12:11:39.685Z,76.00
2018-03-27T12:12:39.689Z,76.00
2018-03-27T12:13:39.664Z,76.00
2018-03-27T12:14:39.658Z,72.00
2018-03-27T12:15:39.659Z,72.00
2018-03-27T12:16:39.657Z,68.00
2018-03-27T12:17:39.648Z,64.00
2018-03-27T12:18:39.656Z,60.00
2018-03-27T12:19:39.641Z,60.00
2018-03-27T12:20:39.643Z,52.00
2018-03-27T12:21:39.624Z,48.00
2018-03-27T12:22:39.630Z,40.00
2018-03-27T12:23:39.627Z,36.00
2018-03-27T12:24:39.614Z,36.00
2018-03-27T12:25:39.633Z,28.00
2018-03-27T12:26:39.604Z,28.00
2018-03-27T12:27:39.613Z,28.00
2018-03-27T12:28:39.609Z,40.00
2018-03-27T12:29:39.603Z,44.00
2018-03-27T12:30:39.580Z,40.00
2018-03-27T12:31:39.638Z,48.00
2018-03-27T12:32:39.589Z,44.00
2018-03-27T12:33:39.596Z,44.00
2018-03-27T12:34:39.567Z,44.00
2018-03-27T12:35:39.559Z,60.00
2018-03-27T12:36:39.569Z,44.00
2018-03-27T12:37:39.572Z,48.00
2018-03-27T12:38:39.546Z,44.00
2018-03-27T12:39:39.553Z,44.00
2018-03-27T12:40:39.545Z,48.00
2018-03-27T12:41:39.529Z,44.00
2018-03-27T12:42:39.533Z,44.00
2018-03-27T12:43:39.515Z,48.00
2018-03-27T12:44:39.527Z,52.00
2018-03-27T12:45:39.516Z,56.00
2018-03-27T12:46:39.515Z,52.00
2018-03-27T12:47:39.511Z,60.00
2018-03-27T12:48:39.511Z,48.00
2018-03-27T12:49:39.494Z,48.00
2018-03-27T12:50:39.493Z,44.00
2018-03-27T12:51:39.485Z,40.00
2018-03-27T12:52:39.488Z,36.00
2018-03-27T12:53:39.479Z,40.00
2018-03-27T12:54:39.498Z,36.00
2018-03-27T12:55:39.466Z,32.00
2018-03-27T12:56:39.468Z,36.00
2018-03-27T12:57:39.485Z,32.00